sensor_id;sensor_type;location;lat;lon;timestamp;P1;durP1;ratioP1;P2;durP2;ratioP2
24631;SDS011;59977;48.782;9.190;2024-02-15T00:00:44;3.40;;;1.38;;
24631;SDS011;59977;48.782;9.190;2024-02-15T00:03:11;5.35;;;1.52;;
24631;SDS011;59977;48.782;9.190;2024-02-15T00:05:38;5.22;;;1.67;;
24631;SDS011;59977;48.782;9.190;2024-02-15T00:08:04;4.65;;;1.63;;
24631;SDS011;59977;48.782;9.190;2024-02-15T00:10:31;5.40;;;1.70;;
24631;SDS011;59977;48.782;9.190;2024-02-15T00:12:57;4.93;;;1.70;;
24631;SDS011;59977;48.782;9.190;2024-02-15T00:15:23;3.97;;;1.50;;
24631;SDS011;59977;48.782;9.190;2024-02-15T00:17:49;4.25;;;1.50;;
24631;SDS011;59977;48.782;9.190;2024-02-15T00:20:15;3.15;;;1.42;;
24631;SDS011;59977;48.782;9.190;2024-02-15T00:22:42;5.43;;;1.58;;
24631;SDS011;59977;48.782;9.190;2024-02-15T00:25:08;5.20;;;1.85;;
24631;SDS011;59977;48.782;9.190;2024-02-15T00:27:34;5.60;;;2.00;;
24631;SDS011;59977;48.782;9.190;2024-02-15T00:30:01;5.70;;;1.90;;
24631;SDS011;59977;48.782;9.190;2024-02-15T00:32:27;5.22;;;1.70;;
24631;SDS011;59977;48.782;9.190;2024-02-15T00:34:53;7.05;;;1.40;;
24631;SDS011;59977;48.782;9.190;2024-02-15T00:37:19;7.78;;;1.92;;
24631;SDS011;59977;48.782;9.190;2024-02-15T00:39:44;5.95;;;1.60;;
24631;SDS011;59977;48.782;9.190;2024-02-15T00:42:10;4.43;;;1.20;;
24631;SDS011;59977;48.782;9.190;2024-02-15T00:44:36;10.32;;;1.65;;
24631;SDS011;59977;48.782;9.190;2024-02-15T00:47:02;6.28;;;1.48;;
24631;SDS011;59977;48.782;9.190;2024-02-15T00:49:28;5.80;;;1.58;;
24631;SDS011;59977;48.782;9.190;2024-02-15T00:51:53;6.68;;;1.70;;
24631;SDS011;59977;48.782;9.190;2024-02-15T00:54:19;6.50;;;1.58;;
24631;SDS011;59977;48.782;9.190;2024-02-15T00:56:44;6.93;;;1.83;;
24631;SDS011;59977;48.782;9.190;2024-02-15T00:59:10;5.13;;;1.52;;
24631;SDS011;59977;48.782;9.190;2024-02-15T01:01:36;9.35;;;1.48;;
24631;SDS011;59977;48.782;9.190;2024-02-15T01:04:05;5.28;;;1.42;;
24631;SDS011;59977;48.782;9.190;2024-02-15T01:06:31;4.95;;;1.88;;
24631;SDS011;59977;48.782;9.190;2024-02-15T01:08:57;6.22;;;1.92;;
24631;SDS011;59977;48.782;9.190;2024-02-15T01:11:26;4.10;;;1.50;;
24631;SDS011;59977;48.782;9.190;2024-02-15T01:13:53;4.05;;;1.52;;
24631;SDS011;59977;48.782;9.190;2024-02-15T01:16:19;3.05;;;1.55;;
24631;SDS011;59977;48.782;9.190;2024-02-15T01:18:46;3.47;;;1.20;;
24631;SDS011;59977;48.782;9.190;2024-02-15T01:21:12;3.80;;;1.77;;
24631;SDS011;59977;48.782;9.190;2024-02-15T01:23:38;4.63;;;1.77;;
24631;SDS011;59977;48.782;9.190;2024-02-15T01:26:04;3.72;;;1.70;;
24631;SDS011;59977;48.782;9.190;2024-02-15T01:28:30;5.22;;;1.83;;
24631;SDS011;59977;48.782;9.190;2024-02-15T01:30:56;6.95;;;1.52;;
24631;SDS011;59977;48.782;9.190;2024-02-15T01:33:21;4.13;;;1.40;;
24631;SDS011;59977;48.782;9.190;2024-02-15T01:35:47;6.40;;;1.75;;
24631;SDS011;59977;48.782;9.190;2024-02-15T01:38:13;4.95;;;1.40;;
24631;SDS011;59977;48.782;9.190;2024-02-15T01:40:39;4.32;;;1.63;;
24631;SDS011;59977;48.782;9.190;2024-02-15T01:43:05;4.05;;;1.48;;
24631;SDS011;59977;48.782;9.190;2024-02-15T01:45:30;3.92;;;1.60;;
24631;SDS011;59977;48.782;9.190;2024-02-15T01:47:56;5.65;;;1.40;;
24631;SDS011;59977;48.782;9.190;2024-02-15T01:50:23;4.35;;;1.30;;
24631;SDS011;59977;48.782;9.190;2024-02-15T01:52:49;7.18;;;1.88;;
24631;SDS011;59977;48.782;9.190;2024-02-15T01:55:18;3.50;;;1.40;;
24631;SDS011;59977;48.782;9.190;2024-02-15T01:57:44;3.90;;;1.52;;
24631;SDS011;59977;48.782;9.190;2024-02-15T02:00:12;6.57;;;1.83;;
24631;SDS011;59977;48.782;9.190;2024-02-15T02:02:41;3.53;;;1.50;;
24631;SDS011;59977;48.782;9.190;2024-02-15T02:05:09;4.18;;;1.38;;
24631;SDS011;59977;48.782;9.190;2024-02-15T02:07:35;4.65;;;1.83;;
24631;SDS011;59977;48.782;9.190;2024-02-15T02:10:00;4.82;;;1.60;;
24631;SDS011;59977;48.782;9.190;2024-02-15T02:12:26;4.05;;;1.63;;
24631;SDS011;59977;48.782;9.190;2024-02-15T02:14:53;3.50;;;1.45;;
24631;SDS011;59977;48.782;9.190;2024-02-15T02:17:19;6.03;;;1.75;;
24631;SDS011;59977;48.782;9.190;2024-02-15T02:19:44;3.65;;;1.38;;
24631;SDS011;59977;48.782;9.190;2024-02-15T02:22:10;3.13;;;1.48;;
24631;SDS011;59977;48.782;9.190;2024-02-15T02:24:40;5.95;;;1.60;;
24631;SDS011;59977;48.782;9.190;2024-02-15T02:27:26;7.90;;;1.50;;
24631;SDS011;59977;48.782;9.190;2024-02-15T02:29:53;3.58;;;1.50;;
24631;SDS011;59977;48.782;9.190;2024-02-15T02:32:18;4.13;;;1.70;;
24631;SDS011;59977;48.782;9.190;2024-02-15T02:34:44;4.03;;;1.40;;
24631;SDS011;59977;48.782;9.190;2024-02-15T02:37:09;5.72;;;1.48;;
24631;SDS011;59977;48.782;9.190;2024-02-15T02:39:36;8.10;;;1.58;;
24631;SDS011;59977;48.782;9.190;2024-02-15T02:42:02;3.38;;;1.30;;
24631;SDS011;59977;48.782;9.190;2024-02-15T02:44:28;6.10;;;2.17;;
24631;SDS011;59977;48.782;9.190;2024-02-15T02:46:54;4.43;;;1.45;;
24631;SDS011;59977;48.782;9.190;2024-02-15T02:49:19;6.45;;;1.38;;
24631;SDS011;59977;48.782;9.190;2024-02-15T02:51:45;7.22;;;1.65;;
24631;SDS011;59977;48.782;9.190;2024-02-15T02:54:11;3.17;;;1.20;;
24631;SDS011;59977;48.782;9.190;2024-02-15T02:56:37;3.58;;;1.30;;
24631;SDS011;59977;48.782;9.190;2024-02-15T02:59:02;5.55;;;1.77;;
24631;SDS011;59977;48.782;9.190;2024-02-15T03:01:28;5.70;;;1.45;;
24631;SDS011;59977;48.782;9.190;2024-02-15T03:03:54;6.65;;;1.40;;
24631;SDS011;59977;48.782;9.190;2024-02-15T03:06:20;4.45;;;1.50;;
24631;SDS011;59977;48.782;9.190;2024-02-15T03:08:46;5.70;;;1.58;;
24631;SDS011;59977;48.782;9.190;2024-02-15T03:11:12;3.97;;;1.40;;
24631;SDS011;59977;48.782;9.190;2024-02-15T03:13:39;7.90;;;1.52;;
24631;SDS011;59977;48.782;9.190;2024-02-15T03:16:05;6.35;;;1.50;;
24631;SDS011;59977;48.782;9.190;2024-02-15T03:18:31;3.42;;;1.40;;
24631;SDS011;59977;48.782;9.190;2024-02-15T03:20:58;4.55;;;1.75;;
24631;SDS011;59977;48.782;9.190;2024-02-15T03:23:23;4.65;;;1.45;;
24631;SDS011;59977;48.782;9.190;2024-02-15T03:25:49;3.67;;;1.55;;
24631;SDS011;59977;48.782;9.190;2024-02-15T03:28:15;5.18;;;1.50;;
24631;SDS011;59977;48.782;9.190;2024-02-15T03:30:41;4.53;;;1.50;;
24631;SDS011;59977;48.782;9.190;2024-02-15T03:33:08;4.97;;;1.65;;
24631;SDS011;59977;48.782;9.190;2024-02-15T03:35:34;5.30;;;1.75;;
24631;SDS011;59977;48.782;9.190;2024-02-15T03:38:00;3.38;;;1.42;;
24631;SDS011;59977;48.782;9.190;2024-02-15T03:40:26;4.82;;;1.40;;
24631;SDS011;59977;48.782;9.190;2024-02-15T03:42:52;5.70;;;1.90;;
24631;SDS011;59977;48.782;9.190;2024-02-15T03:45:18;5.53;;;1.85;;
24631;SDS011;59977;48.782;9.190;2024-02-15T03:47:44;5.03;;;1.58;;
24631;SDS011;59977;48.782;9.190;2024-02-15T03:50:10;4.55;;;1.45;;
24631;SDS011;59977;48.782;9.190;2024-02-15T03:52:37;8.77;;;1.70;;
24631;SDS011;59977;48.782;9.190;2024-02-15T03:55:03;6.07;;;1.80;;
24631;SDS011;59977;48.782;9.190;2024-02-15T03:57:29;2.67;;;1.60;;
24631;SDS011;59977;48.782;9.190;2024-02-15T03:59:55;6.03;;;1.67;;
24631;SDS011;59977;48.782;9.190;2024-02-15T04:02:24;4.15;;;1.45;;
24631;SDS011;59977;48.782;9.190;2024-02-15T04:04:54;5.00;;;1.63;;
24631;SDS011;59977;48.782;9.190;2024-02-15T04:07:20;5.30;;;1.67;;
24631;SDS011;59977;48.782;9.190;2024-02-15T04:09:47;4.57;;;1.50;;
24631;SDS011;59977;48.782;9.190;2024-02-15T04:12:15;3.75;;;1.63;;
24631;SDS011;59977;48.782;9.190;2024-02-15T04:14:41;4.68;;;1.80;;
24631;SDS011;59977;48.782;9.190;2024-02-15T04:17:10;5.07;;;1.70;;
24631;SDS011;59977;48.782;9.190;2024-02-15T04:19:36;5.22;;;1.55;;
24631;SDS011;59977;48.782;9.190;2024-02-15T04:22:02;6.72;;;1.90;;
24631;SDS011;59977;48.782;9.190;2024-02-15T04:24:32;5.38;;;1.50;;
24631;SDS011;59977;48.782;9.190;2024-02-15T04:26:59;6.55;;;1.98;;
24631;SDS011;59977;48.782;9.190;2024-02-15T04:29:25;4.75;;;1.98;;
24631;SDS011;59977;48.782;9.190;2024-02-15T04:31:50;6.57;;;1.77;;
24631;SDS011;59977;48.782;9.190;2024-02-15T04:34:16;6.13;;;1.42;;
24631;SDS011;59977;48.782;9.190;2024-02-15T04:36:46;6.57;;;1.90;;
24631;SDS011;59977;48.782;9.190;2024-02-15T04:39:16;3.25;;;1.55;;
24631;SDS011;59977;48.782;9.190;2024-02-15T04:41:54;7.35;;;1.83;;
24631;SDS011;59977;48.782;9.190;2024-02-15T04:44:20;7.03;;;1.83;;
24631;SDS011;59977;48.782;9.190;2024-02-15T04:46:49;4.18;;;1.83;;
24631;SDS011;59977;48.782;9.190;2024-02-15T04:49:14;5.35;;;1.70;;
24631;SDS011;59977;48.782;9.190;2024-02-15T04:51:40;4.72;;;1.60;;
24631;SDS011;59977;48.782;9.190;2024-02-15T04:54:09;5.30;;;1.90;;
24631;SDS011;59977;48.782;9.190;2024-02-15T04:56:38;3.80;;;1.50;;
24631;SDS011;59977;48.782;9.190;2024-02-15T04:59:04;7.53;;;1.98;;
24631;SDS011;59977;48.782;9.190;2024-02-15T05:01:34;3.70;;;1.30;;
24631;SDS011;59977;48.782;9.190;2024-02-15T05:04:00;4.15;;;1.48;;
24631;SDS011;59977;48.782;9.190;2024-02-15T05:06:32;2.58;;;1.35;;
24631;SDS011;59977;48.782;9.190;2024-02-15T05:08:58;6.43;;;1.60;;
24631;SDS011;59977;48.782;9.190;2024-02-15T05:11:25;3.92;;;1.50;;
24631;SDS011;59977;48.782;9.190;2024-02-15T05:13:51;5.07;;;1.80;;
24631;SDS011;59977;48.782;9.190;2024-02-15T05:16:17;5.47;;;1.77;;
24631;SDS011;59977;48.782;9.190;2024-02-15T05:18:43;8.43;;;1.88;;
24631;SDS011;59977;48.782;9.190;2024-02-15T05:21:10;5.55;;;1.58;;
24631;SDS011;59977;48.782;9.190;2024-02-15T05:23:40;8.02;;;1.83;;
24631;SDS011;59977;48.782;9.190;2024-02-15T05:26:06;6.75;;;2.10;;
24631;SDS011;59977;48.782;9.190;2024-02-15T05:28:33;4.95;;;1.90;;
24631;SDS011;59977;48.782;9.190;2024-02-15T05:31:09;5.47;;;1.98;;
24631;SDS011;59977;48.782;9.190;2024-02-15T05:33:52;7.78;;;2.00;;
24631;SDS011;59977;48.782;9.190;2024-02-15T05:36:19;3.53;;;1.80;;
24631;SDS011;59977;48.782;9.190;2024-02-15T05:38:51;3.70;;;1.73;;
24631;SDS011;59977;48.782;9.190;2024-02-15T05:41:17;2.72;;;1.60;;
24631;SDS011;59977;48.782;9.190;2024-02-15T05:43:44;6.20;;;1.65;;
24631;SDS011;59977;48.782;9.190;2024-02-15T05:46:11;5.10;;;1.70;;
24631;SDS011;59977;48.782;9.190;2024-02-15T05:48:37;5.30;;;1.75;;
24631;SDS011;59977;48.782;9.190;2024-02-15T05:51:04;5.32;;;1.67;;
24631;SDS011;59977;48.782;9.190;2024-02-15T05:53:31;4.57;;;1.63;;
24631;SDS011;59977;48.782;9.190;2024-02-15T05:56:06;9.05;;;1.80;;
24631;SDS011;59977;48.782;9.190;2024-02-15T05:58:33;11.27;;;2.08;;
24631;SDS011;59977;48.782;9.190;2024-02-15T06:01:00;5.82;;;1.67;;
24631;SDS011;59977;48.782;9.190;2024-02-15T06:03:30;7.47;;;1.90;;
24631;SDS011;59977;48.782;9.190;2024-02-15T06:06:02;3.80;;;1.45;;
24631;SDS011;59977;48.782;9.190;2024-02-15T06:08:31;3.90;;;1.58;;
24631;SDS011;59977;48.782;9.190;2024-02-15T06:10:57;9.15;;;1.60;;
24631;SDS011;59977;48.782;9.190;2024-02-15T06:13:25;6.32;;;1.52;;
24631;SDS011;59977;48.782;9.190;2024-02-15T06:15:54;7.22;;;1.80;;
24631;SDS011;59977;48.782;9.190;2024-02-15T06:18:24;7.30;;;1.50;;
24631;SDS011;59977;48.782;9.190;2024-02-15T06:20:52;8.15;;;1.92;;
24631;SDS011;59977;48.782;9.190;2024-02-15T06:23:18;7.68;;;2.17;;
24631;SDS011;59977;48.782;9.190;2024-02-15T06:25:46;3.22;;;1.88;;
24631;SDS011;59977;48.782;9.190;2024-02-15T06:28:14;9.45;;;2.53;;
24631;SDS011;59977;48.782;9.190;2024-02-15T06:30:59;9.77;;;2.05;;
24631;SDS011;59977;48.782;9.190;2024-02-15T06:33:43;4.88;;;1.88;;
24631;SDS011;59977;48.782;9.190;2024-02-15T06:36:27;8.20;;;2.33;;
24631;SDS011;59977;48.782;9.190;2024-02-15T06:39:11;12.18;;;2.72;;
24631;SDS011;59977;48.782;9.190;2024-02-15T06:41:55;6.45;;;1.98;;
24631;SDS011;59977;48.782;9.190;2024-02-15T06:44:21;5.93;;;2.03;;
24631;SDS011;59977;48.782;9.190;2024-02-15T06:46:49;7.95;;;2.13;;
24631;SDS011;59977;48.782;9.190;2024-02-15T06:49:15;3.90;;;1.90;;
24631;SDS011;59977;48.782;9.190;2024-02-15T06:51:41;9.02;;;2.22;;
24631;SDS011;59977;48.782;9.190;2024-02-15T06:54:07;22.95;;;4.47;;
24631;SDS011;59977;48.782;9.190;2024-02-15T06:56:36;8.02;;;3.55;;
24631;SDS011;59977;48.782;9.190;2024-02-15T06:59:05;6.95;;;2.35;;
24631;SDS011;59977;48.782;9.190;2024-02-15T07:01:35;8.52;;;2.00;;
24631;SDS011;59977;48.782;9.190;2024-02-15T07:04:02;7.43;;;1.95;;
24631;SDS011;59977;48.782;9.190;2024-02-15T07:06:28;16.08;;;2.20;;
24631;SDS011;59977;48.782;9.190;2024-02-15T07:08:54;6.43;;;1.95;;
24631;SDS011;59977;48.782;9.190;2024-02-15T07:11:21;5.45;;;1.80;;
24631;SDS011;59977;48.782;9.190;2024-02-15T07:13:47;6.30;;;2.00;;
24631;SDS011;59977;48.782;9.190;2024-02-15T07:16:13;4.82;;;2.10;;
24631;SDS011;59977;48.782;9.190;2024-02-15T07:18:40;8.63;;;2.30;;
24631;SDS011;59977;48.782;9.190;2024-02-15T07:21:06;6.38;;;1.92;;
24631;SDS011;59977;48.782;9.190;2024-02-15T07:23:38;7.38;;;2.47;;
24631;SDS011;59977;48.782;9.190;2024-02-15T07:26:06;8.02;;;2.10;;
24631;SDS011;59977;48.782;9.190;2024-02-15T07:28:32;7.63;;;2.30;;
24631;SDS011;59977;48.782;9.190;2024-02-15T07:30:57;11.77;;;2.60;;
24631;SDS011;59977;48.782;9.190;2024-02-15T07:33:23;18.00;;;2.33;;
24631;SDS011;59977;48.782;9.190;2024-02-15T07:35:49;6.47;;;2.35;;
24631;SDS011;59977;48.782;9.190;2024-02-15T07:38:18;8.70;;;1.90;;
24631;SDS011;59977;48.782;9.190;2024-02-15T07:40:44;6.68;;;2.00;;
24631;SDS011;59977;48.782;9.190;2024-02-15T07:43:10;6.53;;;2.10;;
24631;SDS011;59977;48.782;9.190;2024-02-15T07:45:36;10.50;;;2.13;;
24631;SDS011;59977;48.782;9.190;2024-02-15T07:48:02;7.45;;;2.20;;
24631;SDS011;59977;48.782;9.190;2024-02-15T07:50:31;6.50;;;2.17;;
24631;SDS011;59977;48.782;9.190;2024-02-15T07:52:57;10.10;;;2.30;;
24631;SDS011;59977;48.782;9.190;2024-02-15T07:55:22;4.97;;;2.03;;
24631;SDS011;59977;48.782;9.190;2024-02-15T07:57:49;8.05;;;2.00;;
24631;SDS011;59977;48.782;9.190;2024-02-15T08:00:15;8.38;;;2.72;;
24631;SDS011;59977;48.782;9.190;2024-02-15T08:02:42;11.30;;;3.20;;
24631;SDS011;59977;48.782;9.190;2024-02-15T08:05:11;11.88;;;4.10;;
24631;SDS011;59977;48.782;9.190;2024-02-15T08:07:43;9.50;;;3.07;;
24631;SDS011;59977;48.782;9.190;2024-02-15T08:10:10;11.55;;;3.30;;
24631;SDS011;59977;48.782;9.190;2024-02-15T08:12:39;13.55;;;3.90;;
24631;SDS011;59977;48.782;9.190;2024-02-15T08:15:06;10.70;;;3.65;;
24631;SDS011;59977;48.782;9.190;2024-02-15T08:17:37;7.25;;;3.50;;
24631;SDS011;59977;48.782;9.190;2024-02-15T08:20:04;13.85;;;3.13;;
24631;SDS011;59977;48.782;9.190;2024-02-15T08:22:32;8.85;;;3.80;;
24631;SDS011;59977;48.782;9.190;2024-02-15T08:24:58;8.57;;;3.60;;
24631;SDS011;59977;48.782;9.190;2024-02-15T08:27:24;7.88;;;3.75;;
24631;SDS011;59977;48.782;9.190;2024-02-15T08:29:50;17.25;;;4.07;;
24631;SDS011;59977;48.782;9.190;2024-02-15T08:32:16;13.65;;;3.90;;
24631;SDS011;59977;48.782;9.190;2024-02-15T08:34:42;11.88;;;3.88;;
24631;SDS011;59977;48.782;9.190;2024-02-15T08:37:07;12.50;;;4.00;;
24631;SDS011;59977;48.782;9.190;2024-02-15T08:39:33;12.15;;;3.55;;
24631;SDS011;59977;48.782;9.190;2024-02-15T08:41:59;13.90;;;4.43;;
24631;SDS011;59977;48.782;9.190;2024-02-15T08:44:25;10.80;;;3.83;;
24631;SDS011;59977;48.782;9.190;2024-02-15T08:46:51;11.70;;;3.20;;
24631;SDS011;59977;48.782;9.190;2024-02-15T08:49:16;8.98;;;3.55;;
24631;SDS011;59977;48.782;9.190;2024-02-15T08:51:42;9.38;;;3.30;;
24631;SDS011;59977;48.782;9.190;2024-02-15T08:54:07;9.80;;;3.45;;
24631;SDS011;59977;48.782;9.190;2024-02-15T08:56:35;9.95;;;2.60;;
24631;SDS011;59977;48.782;9.190;2024-02-15T08:59:00;6.60;;;3.10;;
24631;SDS011;59977;48.782;9.190;2024-02-15T09:01:26;7.47;;;3.08;;
24631;SDS011;59977;48.782;9.190;2024-02-15T09:03:52;9.30;;;3.10;;
24631;SDS011;59977;48.782;9.190;2024-02-15T09:06:17;9.05;;;3.28;;
24631;SDS011;59977;48.782;9.190;2024-02-15T09:08:43;13.45;;;3.42;;
24631;SDS011;59977;48.782;9.190;2024-02-15T09:11:09;12.35;;;2.90;;
24631;SDS011;59977;48.782;9.190;2024-02-15T09:13:37;9.75;;;3.25;;
24631;SDS011;59977;48.782;9.190;2024-02-15T09:16:03;10.07;;;3.00;;
24631;SDS011;59977;48.782;9.190;2024-02-15T09:18:30;6.22;;;2.50;;
24631;SDS011;59977;48.782;9.190;2024-02-15T09:20:55;10.13;;;3.47;;
24631;SDS011;59977;48.782;9.190;2024-02-15T09:23:21;8.95;;;3.47;;
24631;SDS011;59977;48.782;9.190;2024-02-15T09:25:48;12.45;;;3.00;;
24631;SDS011;59977;48.782;9.190;2024-02-15T09:28:16;8.13;;;2.90;;
24631;SDS011;59977;48.782;9.190;2024-02-15T09:30:47;12.00;;;2.78;;
24631;SDS011;59977;48.782;9.190;2024-02-15T09:33:21;8.73;;;2.97;;
24631;SDS011;59977;48.782;9.190;2024-02-15T09:35:47;6.47;;;2.53;;
24631;SDS011;59977;48.782;9.190;2024-02-15T09:38:13;12.40;;;2.90;;
24631;SDS011;59977;48.782;9.190;2024-02-15T09:40:41;5.80;;;2.20;;
24631;SDS011;59977;48.782;9.190;2024-02-15T09:43:08;13.23;;;3.05;;
24631;SDS011;59977;48.782;9.190;2024-02-15T09:45:35;7.63;;;2.83;;
24631;SDS011;59977;48.782;9.190;2024-02-15T09:48:02;12.43;;;3.13;;
24631;SDS011;59977;48.782;9.190;2024-02-15T09:50:32;8.50;;;2.53;;
24631;SDS011;59977;48.782;9.190;2024-02-15T09:53:00;9.25;;;2.60;;
24631;SDS011;59977;48.782;9.190;2024-02-15T09:55:28;8.38;;;2.47;;
24631;SDS011;59977;48.782;9.190;2024-02-15T09:57:54;6.85;;;3.08;;
24631;SDS011;59977;48.782;9.190;2024-02-15T10:00:20;14.15;;;2.55;;
24631;SDS011;59977;48.782;9.190;2024-02-15T10:02:52;7.60;;;2.90;;
24631;SDS011;59977;48.782;9.190;2024-02-15T10:05:18;13.10;;;2.80;;
24631;SDS011;59977;48.782;9.190;2024-02-15T10:07:46;7.68;;;3.03;;
24631;SDS011;59977;48.782;9.190;2024-02-15T10:10:15;10.07;;;2.90;;
24631;SDS011;59977;48.782;9.190;2024-02-15T10:12:48;8.57;;;3.22;;
24631;SDS011;59977;48.782;9.190;2024-02-15T10:18:08;10.85;;;3.50;;
24631;SDS011;59977;48.782;9.190;2024-02-15T10:20:36;19.27;;;4.25;;
24631;SDS011;59977;48.782;9.190;2024-02-15T10:23:13;15.38;;;3.40;;
24631;SDS011;59977;48.782;9.190;2024-02-15T10:25:42;19.27;;;3.63;;
24631;SDS011;59977;48.782;9.190;2024-02-15T10:28:09;18.13;;;3.55;;
24631;SDS011;59977;48.782;9.190;2024-02-15T10:30:37;9.77;;;3.30;;
24631;SDS011;59977;48.782;9.190;2024-02-15T10:33:10;7.97;;;2.97;;
24631;SDS011;59977;48.782;9.190;2024-02-15T10:35:44;10.25;;;2.85;;
24631;SDS011;59977;48.782;9.190;2024-02-15T10:38:10;6.53;;;1.77;;
24631;SDS011;59977;48.782;9.190;2024-02-15T10:40:38;8.02;;;2.85;;
24631;SDS011;59977;48.782;9.190;2024-02-15T10:43:06;9.60;;;2.10;;
24631;SDS011;59977;48.782;9.190;2024-02-15T10:45:34;6.78;;;2.42;;
24631;SDS011;59977;48.782;9.190;2024-02-15T10:48:01;8.32;;;1.77;;
24631;SDS011;59977;48.782;9.190;2024-02-15T10:50:29;5.78;;;1.60;;
24631;SDS011;59977;48.782;9.190;2024-02-15T10:52:58;3.75;;;1.35;;
24631;SDS011;59977;48.782;9.190;2024-02-15T10:58:08;3.53;;;1.35;;
24631;SDS011;59977;48.782;9.190;2024-02-15T11:00:38;4.32;;;1.50;;
24631;SDS011;59977;48.782;9.190;2024-02-15T11:03:08;2.95;;;1.33;;
24631;SDS011;59977;48.782;9.190;2024-02-15T11:05:38;5.63;;;1.75;;
24631;SDS011;59977;48.782;9.190;2024-02-15T11:08:05;5.90;;;1.70;;
24631;SDS011;59977;48.782;9.190;2024-02-15T11:10:33;10.80;;;1.98;;
24631;SDS011;59977;48.782;9.190;2024-02-15T11:13:00;5.40;;;1.60;;
24631;SDS011;59977;48.782;9.190;2024-02-15T11:18:04;3.80;;;1.33;;
24631;SDS011;59977;48.782;9.190;2024-02-15T11:22:59;5.90;;;1.80;;
24631;SDS011;59977;48.782;9.190;2024-02-15T11:25:32;2.88;;;1.08;;
24631;SDS011;59977;48.782;9.190;2024-02-15T11:30:46;3.40;;;1.13;;
24631;SDS011;59977;48.782;9.190;2024-02-15T11:33:25;5.88;;;1.40;;
24631;SDS011;59977;48.782;9.190;2024-02-15T11:36:02;6.13;;;1.42;;
24631;SDS011;59977;48.782;9.190;2024-02-15T11:38:40;8.90;;;1.38;;
24631;SDS011;59977;48.782;9.190;2024-02-15T11:41:08;3.63;;;1.30;;
24631;SDS011;59977;48.782;9.190;2024-02-15T11:46:19;4.57;;;1.30;;
24631;SDS011;59977;48.782;9.190;2024-02-15T11:48:45;4.15;;;1.98;;
24631;SDS011;59977;48.782;9.190;2024-02-15T11:51:27;3.50;;;1.38;;
24631;SDS011;59977;48.782;9.190;2024-02-15T11:56:30;4.38;;;1.40;;
24631;SDS011;59977;48.782;9.190;2024-02-15T11:59:04;4.57;;;1.50;;
24631;SDS011;59977;48.782;9.190;2024-02-15T12:01:33;5.65;;;1.77;;
24631;SDS011;59977;48.782;9.190;2024-02-15T12:04:18;11.85;;;3.53;;
24631;SDS011;59977;48.782;9.190;2024-02-15T12:07:02;3.58;;;1.25;;
24631;SDS011;59977;48.782;9.190;2024-02-15T12:09:47;6.32;;;1.33;;
24631;SDS011;59977;48.782;9.190;2024-02-15T12:12:31;5.40;;;1.58;;
24631;SDS011;59977;48.782;9.190;2024-02-15T12:15:15;4.30;;;1.65;;
24631;SDS011;59977;48.782;9.190;2024-02-15T12:18:15;5.47;;;1.50;;
24631;SDS011;59977;48.782;9.190;2024-02-15T12:21:00;4.88;;;1.50;;
24631;SDS011;59977;48.782;9.190;2024-02-15T12:23:28;4.55;;;1.33;;
24631;SDS011;59977;48.782;9.190;2024-02-15T12:25:55;4.72;;;1.25;;
24631;SDS011;59977;48.782;9.190;2024-02-15T12:28:21;4.07;;;1.20;;
24631;SDS011;59977;48.782;9.190;2024-02-15T12:30:47;3.90;;;1.20;;
24631;SDS011;59977;48.782;9.190;2024-02-15T12:33:23;2.50;;;1.23;;
24631;SDS011;59977;48.782;9.190;2024-02-15T12:35:49;2.97;;;1.30;;
24631;SDS011;59977;48.782;9.190;2024-02-15T12:38:18;8.93;;;2.17;;
24631;SDS011;59977;48.782;9.190;2024-02-15T12:40:43;4.40;;;1.63;;
24631;SDS011;59977;48.782;9.190;2024-02-15T12:43:10;5.45;;;1.40;;
24631;SDS011;59977;48.782;9.190;2024-02-15T12:45:37;4.65;;;1.60;;
24631;SDS011;59977;48.782;9.190;2024-02-15T12:48:05;5.10;;;1.42;;
24631;SDS011;59977;48.782;9.190;2024-02-15T12:50:32;6.03;;;1.30;;
24631;SDS011;59977;48.782;9.190;2024-02-15T12:52:59;5.75;;;1.45;;
24631;SDS011;59977;48.782;9.190;2024-02-15T12:55:28;3.35;;;1.45;;
24631;SDS011;59977;48.782;9.190;2024-02-15T12:57:59;6.18;;;1.63;;
24631;SDS011;59977;48.782;9.190;2024-02-15T13:00:29;6.55;;;1.35;;
24631;SDS011;59977;48.782;9.190;2024-02-15T13:02:58;5.63;;;1.50;;
24631;SDS011;59977;48.782;9.190;2024-02-15T13:05:25;4.35;;;1.00;;
24631;SDS011;59977;48.782;9.190;2024-02-15T13:07:52;3.80;;;1.45;;
24631;SDS011;59977;48.782;9.190;2024-02-15T13:10:22;10.13;;;1.42;;
24631;SDS011;59977;48.782;9.190;2024-02-15T13:12:51;6.82;;;1.20;;
24631;SDS011;59977;48.782;9.190;2024-02-15T13:15:18;5.68;;;1.60;;
24631;SDS011;59977;48.782;9.190;2024-02-15T13:17:46;5.60;;;1.60;;
24631;SDS011;59977;48.782;9.190;2024-02-15T13:20:16;8.63;;;1.95;;
24631;SDS011;59977;48.782;9.190;2024-02-15T13:22:45;11.45;;;2.00;;
24631;SDS011;59977;48.782;9.190;2024-02-15T13:25:15;7.20;;;1.50;;
24631;SDS011;59977;48.782;9.190;2024-02-15T13:27:46;5.17;;;1.33;;
24631;SDS011;59977;48.782;9.190;2024-02-15T13:30:12;6.35;;;1.40;;
24631;SDS011;59977;48.782;9.190;2024-02-15T13:32:39;7.47;;;1.65;;
24631;SDS011;59977;48.782;9.190;2024-02-15T13:35:08;4.20;;;1.25;;
24631;SDS011;59977;48.782;9.190;2024-02-15T13:37:46;4.93;;;1.27;;
24631;SDS011;59977;48.782;9.190;2024-02-15T13:40:12;4.65;;;1.35;;
24631;SDS011;59977;48.782;9.190;2024-02-15T13:42:46;3.95;;;1.73;;
24631;SDS011;59977;48.782;9.190;2024-02-15T13:45:19;7.97;;;1.63;;
24631;SDS011;59977;48.782;9.190;2024-02-15T13:47:55;7.05;;;1.30;;
24631;SDS011;59977;48.782;9.190;2024-02-15T13:50:21;6.20;;;1.42;;
24631;SDS011;59977;48.782;9.190;2024-02-15T13:52:48;3.83;;;1.25;;
24631;SDS011;59977;48.782;9.190;2024-02-15T13:55:15;8.35;;;1.23;;
24631;SDS011;59977;48.782;9.190;2024-02-15T13:57:43;2.38;;;1.17;;
24631;SDS011;59977;48.782;9.190;2024-02-15T14:00:13;5.03;;;1.20;;
24631;SDS011;59977;48.782;9.190;2024-02-15T14:02:54;6.63;;;1.60;;
24631;SDS011;59977;48.782;9.190;2024-02-15T14:05:22;6.80;;;1.20;;
24631;SDS011;59977;48.782;9.190;2024-02-15T14:07:51;4.72;;;1.27;;
24631;SDS011;59977;48.782;9.190;2024-02-15T14:10:21;89.28;;;4.57;;
24631;SDS011;59977;48.782;9.190;2024-02-15T14:12:51;2.45;;;1.30;;
24631;SDS011;59977;48.782;9.190;2024-02-15T14:15:20;4.03;;;1.25;;
24631;SDS011;59977;48.782;9.190;2024-02-15T14:17:49;5.05;;;1.70;;
24631;SDS011;59977;48.782;9.190;2024-02-15T14:20:15;5.20;;;1.33;;
24631;SDS011;59977;48.782;9.190;2024-02-15T14:22:41;3.17;;;1.23;;
24631;SDS011;59977;48.782;9.190;2024-02-15T14:25:14;4.25;;;1.23;;
24631;SDS011;59977;48.782;9.190;2024-02-15T14:27:42;6.38;;;1.30;;
24631;SDS011;59977;48.782;9.190;2024-02-15T14:30:08;8.20;;;1.60;;
24631;SDS011;59977;48.782;9.190;2024-02-15T14:32:52;2.85;;;1.52;;
24631;SDS011;59977;48.782;9.190;2024-02-15T14:35:34;8.10;;;1.70;;
24631;SDS011;59977;48.782;9.190;2024-02-15T14:38:18;5.72;;;1.73;;
24631;SDS011;59977;48.782;9.190;2024-02-15T14:40:46;4.55;;;1.73;;
24631;SDS011;59977;48.782;9.190;2024-02-15T14:43:20;7.90;;;1.85;;
24631;SDS011;59977;48.782;9.190;2024-02-15T14:45:46;3.75;;;1.52;;
24631;SDS011;59977;48.782;9.190;2024-02-15T14:48:13;6.15;;;1.70;;
24631;SDS011;59977;48.782;9.190;2024-02-15T14:50:42;9.63;;;1.80;;
24631;SDS011;59977;48.782;9.190;2024-02-15T14:53:09;3.97;;;1.67;;
24631;SDS011;59977;48.782;9.190;2024-02-15T14:55:34;3.58;;;2.00;;
24631;SDS011;59977;48.782;9.190;2024-02-15T14:58:08;3.45;;;1.70;;
24631;SDS011;59977;48.782;9.190;2024-02-15T15:00:34;5.40;;;2.00;;
24631;SDS011;59977;48.782;9.190;2024-02-15T15:03:02;3.95;;;1.70;;
24631;SDS011;59977;48.782;9.190;2024-02-15T15:05:28;6.13;;;1.80;;
24631;SDS011;59977;48.782;9.190;2024-02-15T15:08:12;6.28;;;1.63;;
24631;SDS011;59977;48.782;9.190;2024-02-15T15:10:57;10.43;;;1.58;;